Relevés horaires Beauvechain (Belgique)


Relevés horaires à Beauvechain - Samedi 13 Juin 2020
Heure UTC1 Température [°C] Vent [km/h] Hum. [%] Pres.4 [hPa] Visi. [Km] Nébu. [octa] Préc.5 [mm] Cond.
2m. Res. Ros. Dir.2 Vit. Moy. Raf.3
23:00 18.7 18.7 13.8 SSO 5.6 -- 9.3 73 1012.6(0.4/3h) 20 -- -- --
22:00 19.2 19.2 13.6 NNO 1.9 -- 5.6 70 1012.7(1.5/3h) 20 -- -- --
21:00 20.1 20.1 12.7 NNO 1.9 -- 9.3 62 1012.6(2.0/3h) 20 -- -- NA
20:00 21.1 21.1 11.9 NNO 1.9 -- 7.4 56 1012.1(1.8/3h) 20 -- -- --
19:00 22.1 22.1 11.8 S 5.6 -- 9.3 52 1011.1(1.0/3h) 20 -- -- NA
18:00 24.0 24.0 11.6 SSO 5.6 -- 11.1 46 1010.2(0.3/3h) 20 -- -- --
17:00 24.7 24.7 12.1 S 5.6 -- 11.1 45 1010(-0.3/3h) 20 -- -- --
16:00 23.8 23.8 11.9 SE 5.6 -- 9.3 47 1010(-0.7/3h) 20 -- -- --
15:00 23.7 23.7 11.6 SSE 3.7 -- 11.1 47 1009.8(-0.6/3h) 20 -- -- --
14:00 24.3 24.3 11.8 SSE 3.7 -- 11.1 46 1010.2(0.0/3h) 20 -- -- --
13:00 23.8 23.8 12.7 SE 5.6 -- 11.1 50 1010.7(0.3/3h) 20 -- -- --
12:00 22.3 22.3 12.7 S 5.6 -- 11.1 55 1010.6(0.1/3h) 20 -- -- --
11:00 21.6 21.6 13.8 SSO 5.6 -- 11.1 61 1010.3(0.0/3h) 20 -- -- --
10:00 20.6 20.6 13.7 S 5.6 -- 11.1 65 1010.5(0.3/3h) 20 -- -- --
09:00 19.6 19.6 13.9 NNO 1.9 -- 7.4 70 1010.6(0.9/3h) 20 -- -- --
08:00 18.1 18.1 13.8 S 3.7 -- 7.4 76 1010.6(1.3/3h) 18 -- -- --
07:00 16.8 16.8 13.8 SSE 3.7 -- 7.4 82 1010.2(1.0/3h) 20 -- -- --
06:00 15.4 15.4 13.6 NNO 1.9 -- 7.4 89 1009.7(1.0/3h) 20 -- 5/12h
NA
05:00 14.1 14.1 13.3 ESE 3.7 -- 5.6 95 1009.3(0.5/3h) 20 -- -- --
04:00 13.5 13.5 12.7 SE 3.7 -- 5.6 95 1009.3(0.5/3h) 20 -- -- --
03:00 13.7 13.7 13.1 NNO 1.9 -- 7.4 96 1008.7(0.3/3h) 15 -- -- NA
02:00 14.1 14.1 13.4 NNO 1.9 -- 7.4 96 1008.8(0.0/3h) 20 -- -- --
01:00 14.6 14.6 13.9 ESE 3.7 -- 7.4 96 1008.7(0.5/3h) 20 -- -- NA
00:00 14.6 14.6 14.0 ESE 3.7 -- 22.2 96 1008.3(0.0/3h) 10 -- 5/6h
Il y a de la pluie faible et continue à la station au moment de l'observation

1 Coordinated Universal Time. Actuellement il est 20:00 locale et 18:00 UTC.

2 Le vent souffle depuis la direction indiquée vers la direction oposée.

3 Les rafales max. sont disponible 40 min après l'heure du relevé.

4 Pour les stations d'altitude (plus de 600m) le géopotentiel du niveau le plus proche de la pression obligatoire est indiqué.

5 Les stations disposant d'un diffuseur peuvent indiquer "trace". Cela signifie que des précipitations ont touchés le sol mais que la quantité est inférieure à 0.1 mm.

Récapitulatif de la journée
Température [°C] Vent [km/h] Ensoleillement4 [h] Precipitations totale5 [mm] Pression [Hpa]
Min1 Max.2 Moy.3 Max. Min Max.
13.1 25.1 0 22.2 0 h 0 min 0 1008.3 1012.7

1 Température minimale relevée entre 18:00 UTC la veille et 18:00 UTC le jour donné.

2 Température maximale relevée entre 06:00 UTC le jour donné et 06:00 UTC le lendemain.

3 Vent moyen de la journée basé sur les relevés horaires.

4 Ensoleillement en heures relevé entre 06:00 UTC la veille et 06:00 UTC le jour donné.

5 Précipitations totales tombées entre 06:00 UTC la jour donné et 06:00 UTC le lendemain.

Graphiques horaires